sensor_id;sensor_type;location;lat;lon;timestamp;temperature;humidity
27633;DHT22;15046;50.930;13.334;2023-07-09T00:00:49;21.60;60.50
27633;DHT22;15046;50.930;13.334;2023-07-09T00:03:16;21.50;60.70
27633;DHT22;15046;50.930;13.334;2023-07-09T00:05:42;21.50;60.90
27633;DHT22;15046;50.930;13.334;2023-07-09T00:08:30;21.40;61.00
27633;DHT22;15046;50.930;13.334;2023-07-09T00:10:57;21.40;61.10
27633;DHT22;15046;50.930;13.334;2023-07-09T00:13:25;21.30;61.10
27633;DHT22;15046;50.930;13.334;2023-07-09T00:15:53;21.20;61.10
27633;DHT22;15046;50.930;13.334;2023-07-09T00:18:20;21.20;61.10
27633;DHT22;15046;50.930;13.334;2023-07-09T00:20:46;21.20;61.30
27633;DHT22;15046;50.930;13.334;2023-07-09T00:23:13;21.10;61.20
27633;DHT22;15046;50.930;13.334;2023-07-09T00:25:43;21.10;61.50
27633;DHT22;15046;50.930;13.334;2023-07-09T00:28:13;21.10;61.60
27633;DHT22;15046;50.930;13.334;2023-07-09T00:30:39;21.10;61.30
27633;DHT22;15046;50.930;13.334;2023-07-09T00:33:13;21.00;61.30
27633;DHT22;15046;50.930;13.334;2023-07-09T00:35:43;20.90;61.70
27633;DHT22;15046;50.930;13.334;2023-07-09T00:38:20;20.80;61.90
27633;DHT22;15046;50.930;13.334;2023-07-09T00:43:29;20.80;62.10
27633;DHT22;15046;50.930;13.334;2023-07-09T00:48:40;20.70;62.40
27633;DHT22;15046;50.930;13.334;2023-07-09T00:51:15;20.80;62.40
27633;DHT22;15046;50.930;13.334;2023-07-09T00:53:43;20.70;62.60
27633;DHT22;15046;50.930;13.334;2023-07-09T00:56:14;20.60;62.60
27633;DHT22;15046;50.930;13.334;2023-07-09T00:58:43;20.60;63.50
27633;DHT22;15046;50.930;13.334;2023-07-09T01:01:16;20.60;63.10
27633;DHT22;15046;50.930;13.334;2023-07-09T01:03:49;20.60;63.30
27633;DHT22;15046;50.930;13.334;2023-07-09T01:06:23;20.60;63.20
27633;DHT22;15046;50.930;13.334;2023-07-09T01:08:51;20.60;63.20
27633;DHT22;15046;50.930;13.334;2023-07-09T01:11:21;20.60;63.30
27633;DHT22;15046;50.930;13.334;2023-07-09T01:13:54;20.60;63.30
27633;DHT22;15046;50.930;13.334;2023-07-09T01:16:21;20.60;63.30
27633;DHT22;15046;50.930;13.334;2023-07-09T01:18:50;20.50;63.40
27633;DHT22;15046;50.930;13.334;2023-07-09T01:21:16;20.40;63.60
27633;DHT22;15046;50.930;13.334;2023-07-09T01:23:47;20.30;63.80
27633;DHT22;15046;50.930;13.334;2023-07-09T01:26:22;20.20;64.10
27633;DHT22;15046;50.930;13.334;2023-07-09T01:28:52;20.20;64.40
27633;DHT22;15046;50.930;13.334;2023-07-09T01:31:18;20.10;64.50
27633;DHT22;15046;50.930;13.334;2023-07-09T01:34:04;20.10;64.50
27633;DHT22;15046;50.930;13.334;2023-07-09T01:36:31;20.00;64.80
27633;DHT22;15046;50.930;13.334;2023-07-09T01:38:57;20.00;64.90
27633;DHT22;15046;50.930;13.334;2023-07-09T01:41:22;19.90;65.10
27633;DHT22;15046;50.930;13.334;2023-07-09T01:43:49;19.90;65.30
27633;DHT22;15046;50.930;13.334;2023-07-09T01:46:15;19.90;65.60
27633;DHT22;15046;50.930;13.334;2023-07-09T01:48:43;19.80;65.60
27633;DHT22;15046;50.930;13.334;2023-07-09T01:51:11;19.80;65.60
27633;DHT22;15046;50.930;13.334;2023-07-09T01:53:40;19.70;65.10
27633;DHT22;15046;50.930;13.334;2023-07-09T01:56:06;19.60;64.80
27633;DHT22;15046;50.930;13.334;2023-07-09T01:58:36;19.60;64.70
27633;DHT22;15046;50.930;13.334;2023-07-09T02:01:07;19.50;64.70
27633;DHT22;15046;50.930;13.334;2023-07-09T02:03:33;19.40;65.00
27633;DHT22;15046;50.930;13.334;2023-07-09T02:05:59;19.30;65.30
27633;DHT22;15046;50.930;13.334;2023-07-09T02:08:25;19.30;65.50
27633;DHT22;15046;50.930;13.334;2023-07-09T02:10:51;19.20;65.50
27633;DHT22;15046;50.930;13.334;2023-07-09T02:13:17;19.20;65.50
27633;DHT22;15046;50.930;13.334;2023-07-09T02:15:44;19.20;65.70
27633;DHT22;15046;50.930;13.334;2023-07-09T02:18:11;19.10;66.00
27633;DHT22;15046;50.930;13.334;2023-07-09T02:20:37;19.10;66.00
27633;DHT22;15046;50.930;13.334;2023-07-09T02:23:03;19.20;65.80
27633;DHT22;15046;50.930;13.334;2023-07-09T02:25:29;19.20;65.80
27633;DHT22;15046;50.930;13.334;2023-07-09T02:27:54;19.10;65.80
27633;DHT22;15046;50.930;13.334;2023-07-09T02:30:20;19.20;65.90
27633;DHT22;15046;50.930;13.334;2023-07-09T02:32:46;19.20;65.80
27633;DHT22;15046;50.930;13.334;2023-07-09T02:35:12;19.10;65.60
27633;DHT22;15046;50.930;13.334;2023-07-09T02:37:38;19.00;65.50
27633;DHT22;15046;50.930;13.334;2023-07-09T02:40:07;18.90;65.80
27633;DHT22;15046;50.930;13.334;2023-07-09T02:42:33;18.80;66.10
27633;DHT22;15046;50.930;13.334;2023-07-09T02:44:59;18.80;66.50
27633;DHT22;15046;50.930;13.334;2023-07-09T02:47:25;18.70;66.40
27633;DHT22;15046;50.930;13.334;2023-07-09T02:49:51;18.80;66.40
27633;DHT22;15046;50.930;13.334;2023-07-09T02:52:16;18.80;66.70
27633;DHT22;15046;50.930;13.334;2023-07-09T02:54:42;18.80;66.90
27633;DHT22;15046;50.930;13.334;2023-07-09T02:57:08;18.80;67.10
27633;DHT22;15046;50.930;13.334;2023-07-09T02:59:34;18.80;67.30
27633;DHT22;15046;50.930;13.334;2023-07-09T03:02:00;18.80;67.40
27633;DHT22;15046;50.930;13.334;2023-07-09T03:04:26;18.70;67.30
27633;DHT22;15046;50.930;13.334;2023-07-09T03:06:52;18.60;67.50
27633;DHT22;15046;50.930;13.334;2023-07-09T03:09:19;18.40;67.80
27633;DHT22;15046;50.930;13.334;2023-07-09T03:11:45;18.40;68.30
27633;DHT22;15046;50.930;13.334;2023-07-09T03:14:11;18.30;68.30
27633;DHT22;15046;50.930;13.334;2023-07-09T03:16:37;18.30;68.40
27633;DHT22;15046;50.930;13.334;2023-07-09T03:19:03;18.30;68.50
27633;DHT22;15046;50.930;13.334;2023-07-09T03:21:30;18.20;68.60
27633;DHT22;15046;50.930;13.334;2023-07-09T03:23:57;18.20;69.00
27633;DHT22;15046;50.930;13.334;2023-07-09T03:26:23;18.20;69.20
27633;DHT22;15046;50.930;13.334;2023-07-09T03:28:51;18.20;69.30
27633;DHT22;15046;50.930;13.334;2023-07-09T03:31:17;18.30;69.50
27633;DHT22;15046;50.930;13.334;2023-07-09T03:33:43;18.30;69.50
27633;DHT22;15046;50.930;13.334;2023-07-09T03:36:10;18.30;69.20
27633;DHT22;15046;50.930;13.334;2023-07-09T03:38:36;18.40;69.30
27633;DHT22;15046;50.930;13.334;2023-07-09T03:41:02;18.40;69.30
27633;DHT22;15046;50.930;13.334;2023-07-09T03:43:28;18.40;69.70
27633;DHT22;15046;50.930;13.334;2023-07-09T03:45:54;18.40;69.50
27633;DHT22;15046;50.930;13.334;2023-07-09T03:48:20;18.30;69.80
27633;DHT22;15046;50.930;13.334;2023-07-09T03:50:47;18.30;69.90
27633;DHT22;15046;50.930;13.334;2023-07-09T03:53:14;18.30;70.10
27633;DHT22;15046;50.930;13.334;2023-07-09T03:55:41;18.30;70.40
27633;DHT22;15046;50.930;13.334;2023-07-09T03:58:07;18.40;70.40
27633;DHT22;15046;50.930;13.334;2023-07-09T04:00:33;18.40;70.20
27633;DHT22;15046;50.930;13.334;2023-07-09T04:03:00;18.50;70.40
27633;DHT22;15046;50.930;13.334;2023-07-09T04:05:26;18.50;70.70
27633;DHT22;15046;50.930;13.334;2023-07-09T04:07:53;18.60;70.80
27633;DHT22;15046;50.930;13.334;2023-07-09T04:10:19;18.60;70.30
27633;DHT22;15046;50.930;13.334;2023-07-09T04:12:45;18.70;70.10
27633;DHT22;15046;50.930;13.334;2023-07-09T04:15:12;18.70;70.20
27633;DHT22;15046;50.930;13.334;2023-07-09T04:17:39;18.80;70.80
27633;DHT22;15046;50.930;13.334;2023-07-09T04:20:06;18.80;70.80
27633;DHT22;15046;50.930;13.334;2023-07-09T04:22:33;18.90;71.10
27633;DHT22;15046;50.930;13.334;2023-07-09T04:25:00;18.90;71.10
27633;DHT22;15046;50.930;13.334;2023-07-09T04:27:26;18.90;70.80
27633;DHT22;15046;50.930;13.334;2023-07-09T04:29:53;19.10;70.50
27633;DHT22;15046;50.930;13.334;2023-07-09T04:32:20;19.20;70.30
27633;DHT22;15046;50.930;13.334;2023-07-09T04:34:46;19.40;70.00
27633;DHT22;15046;50.930;13.334;2023-07-09T04:37:13;19.70;69.50
27633;DHT22;15046;50.930;13.334;2023-07-09T04:39:39;19.90;68.70
27633;DHT22;15046;50.930;13.334;2023-07-09T04:42:06;20.00;68.00
27633;DHT22;15046;50.930;13.334;2023-07-09T04:44:35;20.00;67.80
27633;DHT22;15046;50.930;13.334;2023-07-09T04:47:08;20.00;68.20
27633;DHT22;15046;50.930;13.334;2023-07-09T04:49:34;20.00;67.80
27633;DHT22;15046;50.930;13.334;2023-07-09T04:52:00;20.00;67.70
27633;DHT22;15046;50.930;13.334;2023-07-09T04:54:27;20.00;67.90
27633;DHT22;15046;50.930;13.334;2023-07-09T04:56:53;20.10;67.80
27633;DHT22;15046;50.930;13.334;2023-07-09T04:59:21;20.10;67.60
27633;DHT22;15046;50.930;13.334;2023-07-09T05:01:47;20.10;67.50
27633;DHT22;15046;50.930;13.334;2023-07-09T05:04:13;20.20;67.60
27633;DHT22;15046;50.930;13.334;2023-07-09T05:06:39;20.20;68.10
27633;DHT22;15046;50.930;13.334;2023-07-09T05:09:05;20.30;68.00
27633;DHT22;15046;50.930;13.334;2023-07-09T05:11:35;20.30;67.50
27633;DHT22;15046;50.930;13.334;2023-07-09T05:14:02;20.40;67.60
27633;DHT22;15046;50.930;13.334;2023-07-09T05:16:29;20.50;67.50
27633;DHT22;15046;50.930;13.334;2023-07-09T05:18:55;20.50;67.60
27633;DHT22;15046;50.930;13.334;2023-07-09T05:21:21;20.60;67.40
27633;DHT22;15046;50.930;13.334;2023-07-09T05:23:46;20.60;68.10
27633;DHT22;15046;50.930;13.334;2023-07-09T05:26:12;20.70;67.30
27633;DHT22;15046;50.930;13.334;2023-07-09T05:28:38;20.80;67.20
27633;DHT22;15046;50.930;13.334;2023-07-09T05:31:05;20.80;67.10
27633;DHT22;15046;50.930;13.334;2023-07-09T05:33:31;20.90;67.00
27633;DHT22;15046;50.930;13.334;2023-07-09T05:35:56;21.00;67.20
27633;DHT22;15046;50.930;13.334;2023-07-09T05:38:22;21.00;67.10
27633;DHT22;15046;50.930;13.334;2023-07-09T05:40:48;21.10;66.70
27633;DHT22;15046;50.930;13.334;2023-07-09T05:43:14;21.20;66.50
27633;DHT22;15046;50.930;13.334;2023-07-09T05:45:40;21.30;66.50
27633;DHT22;15046;50.930;13.334;2023-07-09T05:48:06;21.40;66.40
27633;DHT22;15046;50.930;13.334;2023-07-09T05:50:34;21.50;66.30
27633;DHT22;15046;50.930;13.334;2023-07-09T05:53:00;21.60;66.50
27633;DHT22;15046;50.930;13.334;2023-07-09T05:55:26;21.60;66.40
27633;DHT22;15046;50.930;13.334;2023-07-09T05:57:53;21.70;66.30
27633;DHT22;15046;50.930;13.334;2023-07-09T06:00:19;21.80;66.80
27633;DHT22;15046;50.930;13.334;2023-07-09T06:02:45;21.90;66.90
27633;DHT22;15046;50.930;13.334;2023-07-09T06:05:11;22.00;66.90
27633;DHT22;15046;50.930;13.334;2023-07-09T06:07:38;22.00;67.00
27633;DHT22;15046;50.930;13.334;2023-07-09T06:10:05;22.20;66.90
27633;DHT22;15046;50.930;13.334;2023-07-09T06:12:31;22.30;66.70
27633;DHT22;15046;50.930;13.334;2023-07-09T06:14:58;22.40;66.60
27633;DHT22;15046;50.930;13.334;2023-07-09T06:17:23;22.50;67.30
27633;DHT22;15046;50.930;13.334;2023-07-09T06:19:49;22.60;67.40
27633;DHT22;15046;50.930;13.334;2023-07-09T06:22:16;22.60;66.90
27633;DHT22;15046;50.930;13.334;2023-07-09T06:24:44;22.70;67.50
27633;DHT22;15046;50.930;13.334;2023-07-09T06:27:10;22.80;67.50
27633;DHT22;15046;50.930;13.334;2023-07-09T06:29:36;22.90;67.20
27633;DHT22;15046;50.930;13.334;2023-07-09T06:32:02;23.00;67.40
27633;DHT22;15046;50.930;13.334;2023-07-09T06:34:28;23.10;67.30
27633;DHT22;15046;50.930;13.334;2023-07-09T06:36:53;23.20;67.40
27633;DHT22;15046;50.930;13.334;2023-07-09T06:39:19;23.30;67.60
27633;DHT22;15046;50.930;13.334;2023-07-09T06:41:46;23.40;66.70
27633;DHT22;15046;50.930;13.334;2023-07-09T06:44:21;23.40;67.00
27633;DHT22;15046;50.930;13.334;2023-07-09T06:46:48;23.60;66.20
27633;DHT22;15046;50.930;13.334;2023-07-09T06:49:13;23.70;65.40
27633;DHT22;15046;50.930;13.334;2023-07-09T06:51:39;23.80;64.50
27633;DHT22;15046;50.930;13.334;2023-07-09T06:54:05;23.90;63.40
27633;DHT22;15046;50.930;13.334;2023-07-09T06:56:32;24.10;62.90
27633;DHT22;15046;50.930;13.334;2023-07-09T06:58:57;24.20;64.10
27633;DHT22;15046;50.930;13.334;2023-07-09T07:01:23;24.30;65.60
27633;DHT22;15046;50.930;13.334;2023-07-09T07:03:49;24.30;65.90
27633;DHT22;15046;50.930;13.334;2023-07-09T07:06:14;24.40;64.90
27633;DHT22;15046;50.930;13.334;2023-07-09T07:08:41;24.50;64.50
27633;DHT22;15046;50.930;13.334;2023-07-09T07:11:07;24.60;64.80
27633;DHT22;15046;50.930;13.334;2023-07-09T07:13:35;24.60;64.50
27633;DHT22;15046;50.930;13.334;2023-07-09T07:16:03;24.80;63.20
27633;DHT22;15046;50.930;13.334;2023-07-09T07:18:29;24.80;60.40
27633;DHT22;15046;50.930;13.334;2023-07-09T07:20:55;24.80;59.50
27633;DHT22;15046;50.930;13.334;2023-07-09T07:23:21;24.90;60.20
27633;DHT22;15046;50.930;13.334;2023-07-09T07:25:47;25.00;60.80
27633;DHT22;15046;50.930;13.334;2023-07-09T07:28:15;25.10;60.70
27633;DHT22;15046;50.930;13.334;2023-07-09T07:30:41;25.20;59.60
27633;DHT22;15046;50.930;13.334;2023-07-09T07:33:07;25.30;58.90
27633;DHT22;15046;50.930;13.334;2023-07-09T07:35:33;25.40;58.90
27633;DHT22;15046;50.930;13.334;2023-07-09T07:37:59;25.40;58.40
27633;DHT22;15046;50.930;13.334;2023-07-09T07:40:25;25.50;57.70
27633;DHT22;15046;50.930;13.334;2023-07-09T07:42:50;25.50;56.50
27633;DHT22;15046;50.930;13.334;2023-07-09T07:45:16;25.60;56.30
27633;DHT22;15046;50.930;13.334;2023-07-09T07:47:42;25.70;56.40
27633;DHT22;15046;50.930;13.334;2023-07-09T07:50:09;25.80;56.90
27633;DHT22;15046;50.930;13.334;2023-07-09T07:52:35;25.90;57.40
27633;DHT22;15046;50.930;13.334;2023-07-09T07:55:11;25.90;57.50
27633;DHT22;15046;50.930;13.334;2023-07-09T07:57:37;26.00;57.70
27633;DHT22;15046;50.930;13.334;2023-07-09T08:00:03;26.10;57.40
27633;DHT22;15046;50.930;13.334;2023-07-09T08:02:30;26.20;57.30
27633;DHT22;15046;50.930;13.334;2023-07-09T08:04:55;26.30;56.90
27633;DHT22;15046;50.930;13.334;2023-07-09T08:07:21;26.40;56.40
27633;DHT22;15046;50.930;13.334;2023-07-09T08:09:47;26.40;55.40
27633;DHT22;15046;50.930;13.334;2023-07-09T08:12:14;26.50;55.10
27633;DHT22;15046;50.930;13.334;2023-07-09T08:14:41;26.60;55.40
27633;DHT22;15046;50.930;13.334;2023-07-09T08:17:08;26.70;55.60
27633;DHT22;15046;50.930;13.334;2023-07-09T08:19:45;26.80;55.10
27633;DHT22;15046;50.930;13.334;2023-07-09T08:22:12;26.90;53.50
27633;DHT22;15046;50.930;13.334;2023-07-09T08:24:38;27.00;53.20
27633;DHT22;15046;50.930;13.334;2023-07-09T08:27:06;27.00;53.00
27633;DHT22;15046;50.930;13.334;2023-07-09T08:29:32;27.10;51.70
27633;DHT22;15046;50.930;13.334;2023-07-09T08:31:58;27.20;52.00
27633;DHT22;15046;50.930;13.334;2023-07-09T08:34:24;27.30;52.30
27633;DHT22;15046;50.930;13.334;2023-07-09T08:36:50;27.40;51.80
27633;DHT22;15046;50.930;13.334;2023-07-09T08:39:15;27.50;52.70
27633;DHT22;15046;50.930;13.334;2023-07-09T08:41:59;27.60;53.40
27633;DHT22;15046;50.930;13.334;2023-07-09T08:50:21;27.90;53.40
27633;DHT22;15046;50.930;13.334;2023-07-09T08:52:49;28.00;53.40
27633;DHT22;15046;50.930;13.334;2023-07-09T08:55:27;28.20;53.10
27633;DHT22;15046;50.930;13.334;2023-07-09T09:00:29;28.40;51.00
27633;DHT22;15046;50.930;13.334;2023-07-09T09:03:08;28.50;49.80
27633;DHT22;15046;50.930;13.334;2023-07-09T09:05:42;28.60;49.30
27633;DHT22;15046;50.930;13.334;2023-07-09T09:10:50;28.90;48.60
27633;DHT22;15046;50.930;13.334;2023-07-09T09:13:22;29.00;49.80
27633;DHT22;15046;50.930;13.334;2023-07-09T09:15:49;29.10;50.30
27633;DHT22;15046;50.930;13.334;2023-07-09T09:18:22;29.20;49.50
27633;DHT22;15046;50.930;13.334;2023-07-09T09:23:46;29.40;49.20
27633;DHT22;15046;50.930;13.334;2023-07-09T09:26:33;29.50;48.50
27633;DHT22;15046;50.930;13.334;2023-07-09T09:29:00;29.60;49.30
27633;DHT22;15046;50.930;13.334;2023-07-09T09:31:30;29.70;48.10
27633;DHT22;15046;50.930;13.334;2023-07-09T09:33:56;29.90;47.70
27633;DHT22;15046;50.930;13.334;2023-07-09T09:36:25;30.00;47.30
27633;DHT22;15046;50.930;13.334;2023-07-09T09:38:52;30.10;47.20
27633;DHT22;15046;50.930;13.334;2023-07-09T09:41:29;30.20;46.90
27633;DHT22;15046;50.930;13.334;2023-07-09T09:43:55;30.30;46.30
27633;DHT22;15046;50.930;13.334;2023-07-09T09:46:24;30.40;46.70
27633;DHT22;15046;50.930;13.334;2023-07-09T09:48:54;30.50;45.90
27633;DHT22;15046;50.930;13.334;2023-07-09T09:51:20;30.60;45.30
27633;DHT22;15046;50.930;13.334;2023-07-09T09:53:50;30.80;45.20
27633;DHT22;15046;50.930;13.334;2023-07-09T09:56:34;30.90;46.50
27633;DHT22;15046;50.930;13.334;2023-07-09T09:59:01;31.20;47.70
27633;DHT22;15046;50.930;13.334;2023-07-09T10:01:33;31.40;47.60
27633;DHT22;15046;50.930;13.334;2023-07-09T10:04:04;31.60;46.70
27633;DHT22;15046;50.930;13.334;2023-07-09T10:06:36;31.90;46.40
27633;DHT22;15046;50.930;13.334;2023-07-09T10:11:44;32.70;44.20
27633;DHT22;15046;50.930;13.334;2023-07-09T10:16:46;34.00;44.40
27633;DHT22;15046;50.930;13.334;2023-07-09T10:22:12;36.00;42.00
27633;DHT22;15046;50.930;13.334;2023-07-09T10:27:42;37.70;42.10
27633;DHT22;15046;50.930;13.334;2023-07-09T10:39:15;39.50;38.90
27633;DHT22;15046;50.930;13.334;2023-07-09T10:41:43;39.80;37.50
27633;DHT22;15046;50.930;13.334;2023-07-09T10:44:17;39.90;38.00
27633;DHT22;15046;50.930;13.334;2023-07-09T10:46:50;40.10;38.00
27633;DHT22;15046;50.930;13.334;2023-07-09T10:49:21;40.20;37.20
27633;DHT22;15046;50.930;13.334;2023-07-09T10:51:54;40.40;37.00
27633;DHT22;15046;50.930;13.334;2023-07-09T10:54:36;40.30;37.70
27633;DHT22;15046;50.930;13.334;2023-07-09T10:57:14;40.40;36.20
27633;DHT22;15046;50.930;13.334;2023-07-09T10:59:43;40.40;37.20
27633;DHT22;15046;50.930;13.334;2023-07-09T11:02:30;40.60;37.90
27633;DHT22;15046;50.930;13.334;2023-07-09T11:05:02;40.90;38.70
27633;DHT22;15046;50.930;13.334;2023-07-09T11:07:36;41.10;36.80
27633;DHT22;15046;50.930;13.334;2023-07-09T11:10:27;41.50;37.50
27633;DHT22;15046;50.930;13.334;2023-07-09T11:15:36;41.80;36.20
27633;DHT22;15046;50.930;13.334;2023-07-09T11:18:23;41.80;34.20
27633;DHT22;15046;50.930;13.334;2023-07-09T11:20:59;41.70;34.90
27633;DHT22;15046;50.930;13.334;2023-07-09T11:23:26;41.90;33.30
27633;DHT22;15046;50.930;13.334;2023-07-09T11:26:10;42.00;33.30
27633;DHT22;15046;50.930;13.334;2023-07-09T11:28:38;42.20;33.30
27633;DHT22;15046;50.930;13.334;2023-07-09T11:31:16;42.10;34.00
27633;DHT22;15046;50.930;13.334;2023-07-09T11:33:47;42.10;33.20
27633;DHT22;15046;50.930;13.334;2023-07-09T11:36:23;42.00;33.70
27633;DHT22;15046;50.930;13.334;2023-07-09T11:38:49;41.90;33.00
27633;DHT22;15046;50.930;13.334;2023-07-09T11:44:20;42.20;34.70
27633;DHT22;15046;50.930;13.334;2023-07-09T11:47:19;42.40;33.10
27633;DHT22;15046;50.930;13.334;2023-07-09T11:49:50;42.50;34.40
27633;DHT22;15046;50.930;13.334;2023-07-09T11:52:28;42.40;32.80
27633;DHT22;15046;50.930;13.334;2023-07-09T11:54:56;42.50;32.80
27633;DHT22;15046;50.930;13.334;2023-07-09T11:57:28;42.50;32.60
27633;DHT22;15046;50.930;13.334;2023-07-09T11:59:59;42.20;32.50
27633;DHT22;15046;50.930;13.334;2023-07-09T12:02:31;42.20;31.50
27633;DHT22;15046;50.930;13.334;2023-07-09T12:04:58;42.20;31.30
27633;DHT22;15046;50.930;13.334;2023-07-09T12:07:25;42.20;32.80
27633;DHT22;15046;50.930;13.334;2023-07-09T12:09:51;42.50;33.00
27633;DHT22;15046;50.930;13.334;2023-07-09T12:12:25;42.60;32.70
27633;DHT22;15046;50.930;13.334;2023-07-09T12:14:53;42.80;32.50
27633;DHT22;15046;50.930;13.334;2023-07-09T12:17:27;42.80;32.60
27633;DHT22;15046;50.930;13.334;2023-07-09T12:19:55;43.00;34.20
27633;DHT22;15046;50.930;13.334;2023-07-09T12:22:22;43.40;34.90
27633;DHT22;15046;50.930;13.334;2023-07-09T12:24:49;43.80;34.10
27633;DHT22;15046;50.930;13.334;2023-07-09T12:27:27;43.90;33.30
27633;DHT22;15046;50.930;13.334;2023-07-09T12:30:02;43.80;33.60
27633;DHT22;15046;50.930;13.334;2023-07-09T12:32:28;43.50;32.60
27633;DHT22;15046;50.930;13.334;2023-07-09T12:34:56;43.30;32.50
27633;DHT22;15046;50.930;13.334;2023-07-09T12:37:24;43.10;33.10
27633;DHT22;15046;50.930;13.334;2023-07-09T12:39:51;43.10;32.90
27633;DHT22;15046;50.930;13.334;2023-07-09T12:42:24;43.30;32.40
27633;DHT22;15046;50.930;13.334;2023-07-09T12:44:50;43.60;32.70
27633;DHT22;15046;50.930;13.334;2023-07-09T12:47:18;43.90;33.50
27633;DHT22;15046;50.930;13.334;2023-07-09T12:49:46;44.10;32.40
27633;DHT22;15046;50.930;13.334;2023-07-09T12:52:21;44.20;33.00
27633;DHT22;15046;50.930;13.334;2023-07-09T12:55:25;44.10;32.00
27633;DHT22;15046;50.930;13.334;2023-07-09T12:57:59;43.60;32.20
27633;DHT22;15046;50.930;13.334;2023-07-09T13:00:29;42.60;33.60
27633;DHT22;15046;50.930;13.334;2023-07-09T13:02:58;42.30;33.60
27633;DHT22;15046;50.930;13.334;2023-07-09T13:05:27;42.40;33.70
27633;DHT22;15046;50.930;13.334;2023-07-09T13:07:58;42.80;33.60
27633;DHT22;15046;50.930;13.334;2023-07-09T13:10:28;43.20;33.70
27633;DHT22;15046;50.930;13.334;2023-07-09T13:12:57;43.50;34.30
27633;DHT22;15046;50.930;13.334;2023-07-09T13:15:40;43.60;32.80
27633;DHT22;15046;50.930;13.334;2023-07-09T13:18:11;43.50;32.00
27633;DHT22;15046;50.930;13.334;2023-07-09T13:20:40;43.30;32.90
27633;DHT22;15046;50.930;13.334;2023-07-09T13:26:01;43.80;33.90
27633;DHT22;15046;50.930;13.334;2023-07-09T13:28:31;44.10;33.20
27633;DHT22;15046;50.930;13.334;2023-07-09T13:30:59;44.20;32.90
27633;DHT22;15046;50.930;13.334;2023-07-09T13:33:26;43.90;31.60
27633;DHT22;15046;50.930;13.334;2023-07-09T13:35:52;43.70;31.50
27633;DHT22;15046;50.930;13.334;2023-07-09T13:38:21;42.80;31.60
27633;DHT22;15046;50.930;13.334;2023-07-09T13:40:50;41.70;33.20
27633;DHT22;15046;50.930;13.334;2023-07-09T13:43:46;41.70;34.40
27633;DHT22;15046;50.930;13.334;2023-07-09T13:46:12;42.30;35.20
27633;DHT22;15046;50.930;13.334;2023-07-09T13:48:39;42.80;34.70
27633;DHT22;15046;50.930;13.334;2023-07-09T13:51:19;42.80;34.30
27633;DHT22;15046;50.930;13.334;2023-07-09T13:53:51;43.10;34.80
27633;DHT22;15046;50.930;13.334;2023-07-09T13:56:18;43.40;34.50
27633;DHT22;15046;50.930;13.334;2023-07-09T13:58:44;43.40;33.30
27633;DHT22;15046;50.930;13.334;2023-07-09T14:01:17;43.40;32.20
27633;DHT22;15046;50.930;13.334;2023-07-09T14:03:44;43.20;32.50
27633;DHT22;15046;50.930;13.334;2023-07-09T14:06:17;43.10;32.10
27633;DHT22;15046;50.930;13.334;2023-07-09T14:08:44;43.20;33.50
27633;DHT22;15046;50.930;13.334;2023-07-09T14:11:14;43.40;33.20
27633;DHT22;15046;50.930;13.334;2023-07-09T14:13:41;43.50;33.30
27633;DHT22;15046;50.930;13.334;2023-07-09T14:16:12;43.60;33.50
27633;DHT22;15046;50.930;13.334;2023-07-09T14:18:39;43.80;33.60
27633;DHT22;15046;50.930;13.334;2023-07-09T14:21:13;43.90;32.20
27633;DHT22;15046;50.930;13.334;2023-07-09T14:23:39;44.10;32.50
27633;DHT22;15046;50.930;13.334;2023-07-09T14:26:13;44.30;32.40
27633;DHT22;15046;50.930;13.334;2023-07-09T14:28:39;44.10;32.10
27633;DHT22;15046;50.930;13.334;2023-07-09T14:31:21;44.20;34.20
27633;DHT22;15046;50.930;13.334;2023-07-09T14:33:50;44.40;34.90
27633;DHT22;15046;50.930;13.334;2023-07-09T14:36:16;44.60;34.10
27633;DHT22;15046;50.930;13.334;2023-07-09T14:38:42;44.70;34.40
27633;DHT22;15046;50.930;13.334;2023-07-09T14:41:22;44.70;34.70
27633;DHT22;15046;50.930;13.334;2023-07-09T14:43:50;44.90;34.10
27633;DHT22;15046;50.930;13.334;2023-07-09T14:46:17;44.90;33.40
27633;DHT22;15046;50.930;13.334;2023-07-09T14:48:43;44.80;33.10
27633;DHT22;15046;50.930;13.334;2023-07-09T14:51:15;44.90;33.90
27633;DHT22;15046;50.930;13.334;2023-07-09T14:53:42;45.00;33.00
27633;DHT22;15046;50.930;13.334;2023-07-09T14:56:11;45.00;32.80
27633;DHT22;15046;50.930;13.334;2023-07-09T14:58:37;45.10;33.10
27633;DHT22;15046;50.930;13.334;2023-07-09T15:01:04;45.20;33.50
27633;DHT22;15046;50.930;13.334;2023-07-09T15:03:30;45.20;32.40
27633;DHT22;15046;50.930;13.334;2023-07-09T15:05:56;45.10;32.40
27633;DHT22;15046;50.930;13.334;2023-07-09T15:08:24;44.90;33.80
27633;DHT22;15046;50.930;13.334;2023-07-09T15:10:53;44.90;34.10
27633;DHT22;15046;50.930;13.334;2023-07-09T15:13:29;45.00;33.30
27633;DHT22;15046;50.930;13.334;2023-07-09T15:15:56;45.00;32.70
27633;DHT22;15046;50.930;13.334;2023-07-09T15:18:22;44.80;32.70
27633;DHT22;15046;50.930;13.334;2023-07-09T15:20:50;44.70;32.10
27633;DHT22;15046;50.930;13.334;2023-07-09T15:23:17;44.60;33.20
27633;DHT22;15046;50.930;13.334;2023-07-09T15:25:44;44.50;33.90
27633;DHT22;15046;50.930;13.334;2023-07-09T15:28:11;44.50;33.70
27633;DHT22;15046;50.930;13.334;2023-07-09T15:30:38;44.40;33.20
27633;DHT22;15046;50.930;13.334;2023-07-09T15:33:04;44.50;32.40
27633;DHT22;15046;50.930;13.334;2023-07-09T15:35:34;44.50;33.70
27633;DHT22;15046;50.930;13.334;2023-07-09T15:38:37;44.60;33.10
27633;DHT22;15046;50.930;13.334;2023-07-09T15:40:57;44.50;32.50
27633;DHT22;15046;50.930;13.334;2023-07-09T15:43:25;44.30;33.10
27633;DHT22;15046;50.930;13.334;2023-07-09T15:45:53;44.40;33.70
27633;DHT22;15046;50.930;13.334;2023-07-09T15:48:34;44.60;33.90
27633;DHT22;15046;50.930;13.334;2023-07-09T15:51:01;44.70;34.00
27633;DHT22;15046;50.930;13.334;2023-07-09T15:53:28;44.60;33.70
27633;DHT22;15046;50.930;13.334;2023-07-09T15:56:00;44.50;33.90
27633;DHT22;15046;50.930;13.334;2023-07-09T15:58:40;44.50;33.10
27633;DHT22;15046;50.930;13.334;2023-07-09T16:01:11;44.50;33.20
27633;DHT22;15046;50.930;13.334;2023-07-09T16:03:37;44.50;32.90
27633;DHT22;15046;50.930;13.334;2023-07-09T16:06:03;44.40;33.00
27633;DHT22;15046;50.930;13.334;2023-07-09T16:08:30;44.30;33.50
27633;DHT22;15046;50.930;13.334;2023-07-09T16:10:56;44.20;34.30
27633;DHT22;15046;50.930;13.334;2023-07-09T16:13:24;44.20;33.80